Time;durP1;ratioP1;P1;durP2;ratioP2;P2;SDS_P1;SDS_P2;PMS_P1;PMS_P2;Temp;Humidity;BMP_temperature;BMP_pressure;BME280_temperature;BME280_humidity;BME280_pressure;Samples;Min_cycle;Max_cycle;Signal;HPM_P1;HPM_P2
2023/12/23 00:02:01;;;;;;;10.40;2.33;;;6.50;99.90;;;;;;6217876;23;20048;-75
2023/12/23 00:04:26;;;;;;;12.52;2.05;;;6.50;99.90;;;;;;6190776;23;20378;-75
2023/12/23 00:06:52;;;;;;;11.23;1.90;;;6.50;99.90;;;;;;6190896;23;20071;-75
2023/12/23 00:09:18;;;;;;;12.48;2.30;;;6.60;99.90;;;;;;6191452;23;20021;-75
2023/12/23 00:11:43;;;;;;;20.70;2.92;;;6.60;99.90;;;;;;6190804;23;20083;-75
2023/12/23 00:14:09;;;;;;;21.92;3.70;;;6.60;99.90;;;;;;6190798;23;20017;-75
2023/12/23 00:16:35;;;;;;;16.92;3.17;;;6.60;99.90;;;;;;6190879;23;20448;-75
2023/12/23 00:19:00;;;;;;;18.08;3.13;;;6.60;99.90;;;;;;6190819;23;20385;-75
2023/12/23 00:21:26;;;;;;;23.40;2.40;;;6.60;99.90;;;;;;6217272;23;20012;-75
2023/12/23 00:23:54;;;;;;;15.38;3.05;;;6.60;99.90;;;;;;6190752;23;20020;-76
2023/12/23 00:26:20;;;;;;;9.80;1.92;;;6.70;99.90;;;;;;6190675;23;20013;-75
2023/12/23 00:28:45;;;;;;;17.23;2.55;;;6.70;99.90;;;;;;6190756;23;20043;-75
2023/12/23 00:31:11;;;;;;;21.33;4.90;;;6.70;99.90;;;;;;6190824;23;20017;-75
2023/12/23 00:33:37;;;;;;;13.70;2.45;;;6.70;99.90;;;;;;6190705;23;20021;-75
2023/12/23 00:36:03;;;;;;;16.33;2.42;;;6.80;99.90;;;;;;6190673;23;20020;-75
2023/12/23 00:38:28;;;;;;;20.90;2.03;;;6.80;99.90;;;;;;6190603;23;20095;-76
2023/12/23 00:40:54;;;;;;;14.75;2.47;;;6.80;99.90;;;;;;6190675;23;20062;-75
2023/12/23 00:43:19;;;;;;;10.50;2.00;;;6.80;99.90;;;;;;6217276;23;20017;-75
2023/12/23 00:45:45;;;;;;;17.73;2.85;;;6.80;99.90;;;;;;6190523;23;20019;-75
2023/12/23 00:48:11;;;;;;;12.95;1.83;;;6.90;99.90;;;;;;6190591;23;20016;-76
2023/12/23 00:50:37;;;;;;;18.48;3.58;;;6.90;99.90;;;;;;6190431;23;20013;-75
2023/12/23 00:53:03;;;;;;;17.45;2.60;;;6.90;99.90;;;;;;6190520;23;20024;-75
2023/12/23 00:55:28;;;;;;;15.77;2.10;;;6.90;99.90;;;;;;6190432;23;20025;-75
2023/12/23 00:57:57;;;;;;;13.10;2.55;;;6.90;99.90;;;;;;6190061;23;20092;-75
2023/12/23 01:00:23;;;;;;;14.18;1.75;;;6.90;99.90;;;;;;6189362;23;20059;-75
2023/12/23 01:02:50;;;;;;;14.65;2.15;;;6.90;99.90;;;;;;6190150;23;20017;-75
2023/12/23 01:05:16;;;;;;;11.45;1.95;;;6.90;99.90;;;;;;6190306;23;20032;-75
2023/12/23 01:07:42;;;;;;;13.60;3.08;;;6.90;99.90;;;;;;6190356;23;20017;-75
2023/12/23 01:10:08;;;;;;;16.45;2.88;;;6.90;99.90;;;;;;6189750;23;20032;-75
2023/12/23 01:12:37;;;;;;;15.98;2.45;;;7.00;99.90;;;;;;6190181;23;20020;-75
2023/12/23 01:15:06;;;;;;;13.90;2.80;;;7.00;99.90;;;;;;6165212;23;20013;-75
2023/12/23 01:17:31;;;;;;;18.88;4.80;;;7.00;99.90;;;;;;6190294;23;20016;-75
2023/12/23 01:19:57;;;;;;;11.55;2.65;;;7.00;99.90;;;;;;6190199;23;20039;-76
2023/12/23 01:22:22;;;;;;;14.68;2.55;;;6.90;99.90;;;;;;6190099;23;20017;-75
2023/12/23 01:24:48;;;;;;;14.10;2.05;;;7.00;99.90;;;;;;6190760;23;20344;-75
2023/12/23 01:27:16;;;;;;;15.02;2.72;;;6.90;99.90;;;;;;6190279;23;20021;-75
2023/12/23 01:29:42;;;;;;;20.08;2.53;;;7.00;99.90;;;;;;6190188;23;20413;-75
2023/12/23 01:32:07;;;;;;;19.75;2.38;;;7.00;99.90;;;;;;6190091;23;20075;-75
2023/12/23 01:34:33;;;;;;;16.27;2.53;;;6.90;99.90;;;;;;6190109;23;20091;-75
2023/12/23 01:36:59;;;;;;;17.92;2.90;;;6.90;99.90;;;;;;6190098;23;20020;-75
2023/12/23 01:39:24;;;;;;;13.13;2.08;;;6.90;99.90;;;;;;6190099;23;20021;-75
2023/12/23 01:41:50;;;;;;;19.00;2.75;;;6.90;99.90;;;;;;6190060;23;20341;-75
2023/12/23 01:44:15;;;;;;;16.95;2.40;;;6.90;99.90;;;;;;6189928;23;20052;-75
2023/12/23 01:46:41;;;;;;;12.45;1.63;;;6.80;99.90;;;;;;6189926;23;20020;-75
2023/12/23 01:49:10;;;;;;;17.90;2.90;;;6.90;99.90;;;;;;6189962;23;20504;-76
2023/12/23 01:51:35;;;;;;;15.98;2.95;;;6.80;99.90;;;;;;6189924;23;20012;-75
2023/12/23 01:54:05;;;;;;;10.02;1.65;;;6.90;99.90;;;;;;6189903;23;20059;-75
2023/12/23 01:56:34;;;;;;;10.52;2.25;;;6.80;99.90;;;;;;6189748;23;20448;-76
2023/12/23 01:59:04;;;;;;;14.57;2.63;;;6.90;99.90;;;;;;6189898;23;20091;-75
2023/12/23 02:01:31;;;;;;;8.73;1.38;;;6.90;99.90;;;;;;6190030;23;20012;-76
2023/12/23 02:03:57;;;;;;;10.45;2.00;;;6.90;99.90;;;;;;6189692;23;20468;-76
2023/12/23 02:06:23;;;;;;;8.75;1.13;;;6.90;99.90;;;;;;6189755;23;20020;-75
2023/12/23 02:08:49;;;;;;;11.75;2.22;;;6.90;99.90;;;;;;6189770;23;20099;-76
2023/12/23 02:11:30;;;;;;;14.27;2.03;;;6.90;99.90;;;;;;6189777;23;20028;-75
2023/12/23 02:14:12;;;;;;;8.90;1.77;;;6.90;99.90;;;;;;6189541;23;20021;-75
2023/12/23 02:16:38;;;;;;;9.35;0.90;;;6.90;99.90;;;;;;6189806;23;20319;-76
2023/12/23 02:19:04;;;;;;;10.45;2.25;;;6.90;99.90;;;;;;6189645;23;20551;-76
2023/12/23 02:21:29;;;;;;;9.73;1.38;;;6.90;99.90;;;;;;6189547;23;20104;-75
2023/12/23 02:23:55;;;;;;;15.57;2.10;;;6.90;99.90;;;;;;6216129;23;20031;-75
2023/12/23 02:26:24;;;;;;;16.10;2.00;;;6.90;99.90;;;;;;6189576;23;20012;-76
2023/12/23 02:28:54;;;;;;;17.88;2.20;;;6.80;99.90;;;;;;6189554;23;20017;-75
2023/12/23 02:31:21;;;;;;;8.57;1.33;;;6.80;99.90;;;;;;6189544;23;20012;-75
2023/12/23 02:33:47;;;;;;;14.95;1.52;;;6.80;99.90;;;;;;6216440;23;20017;-76
2023/12/23 02:36:13;;;;;;;10.65;1.73;;;6.80;99.90;;;;;;6189532;23;20087;-76
2023/12/23 02:38:39;;;;;;;9.15;1.98;;;6.80;99.90;;;;;;6189565;23;20518;-76
2023/12/23 02:41:04;;;;;;;14.98;1.50;;;6.80;99.90;;;;;;6189596;23;20017;-75
2023/12/23 02:43:33;;;;;;;10.85;1.92;;;6.70;99.90;;;;;;6189317;23;20027;-75
2023/12/23 02:45:58;;;;;;;16.95;2.60;;;6.70;99.90;;;;;;6216402;23;20031;-76
2023/12/23 02:48:24;;;;;;;10.65;1.98;;;6.60;99.90;;;;;;6189300;23;20348;-75
2023/12/23 02:50:50;;;;;;;14.43;2.03;;;6.60;99.90;;;;;;6189462;23;20012;-75
2023/12/23 02:53:15;;;;;;;9.20;2.65;;;6.50;99.90;;;;;;6189441;23;20021;-75
2023/12/23 02:55:41;;;;;;;9.95;1.50;;;6.50;99.90;;;;;;6189175;23;20052;-76
2023/12/23 02:58:07;;;;;;;11.55;1.40;;;6.40;99.90;;;;;;6189140;23;20020;-76
2023/12/23 03:00:36;;;;;;;13.13;1.55;;;6.40;99.90;;;;;;6188132;23;20020;-75
2023/12/23 03:03:01;;;;;;;8.13;1.02;;;6.40;99.90;;;;;;6216052;23;20024;-76
2023/12/23 03:05:27;;;;;;;8.52;1.50;;;6.40;99.90;;;;;;6189373;23;20017;-76
2023/12/23 03:07:53;;;;;;;10.68;1.58;;;6.40;99.90;;;;;;6189386;23;20090;-76
2023/12/23 03:10:18;;;;;;;11.93;1.50;;;6.40;99.90;;;;;;6189269;23;20066;-76
2023/12/23 03:12:44;;;;;;;11.45;1.95;;;6.40;99.90;;;;;;6189365;23;20049;-76
2023/12/23 03:15:12;;;;;;;8.43;1.13;;;6.40;99.90;;;;;;6185717;23;20024;-76
2023/12/23 03:17:38;;;;;;;12.27;2.33;;;6.40;99.90;;;;;;6189316;23;20032;-76
2023/12/23 03:20:04;;;;;;;14.32;1.50;;;6.30;99.90;;;;;;6189354;23;20406;-76
2023/12/23 03:22:30;;;;;;;8.60;1.13;;;6.30;99.90;;;;;;6189314;23;20020;-76
2023/12/23 03:24:56;;;;;;;8.00;1.20;;;6.20;99.90;;;;;;6189360;23;20020;-76
2023/12/23 03:27:22;;;;;;;9.05;1.50;;;6.20;99.90;;;;;;6189345;23;20437;-75
2023/12/23 03:29:47;;;;;;;9.35;1.73;;;6.10;99.90;;;;;;6189345;23;20025;-76
2023/12/23 03:32:16;;;;;;;9.20;2.53;;;6.10;99.90;;;;;;6189263;23;20025;-76
2023/12/23 03:34:41;;;;;;;8.55;1.27;;;6.00;99.90;;;;;;6217347;23;20063;-76
2023/12/23 03:37:10;;;;;;;12.15;1.60;;;6.00;99.90;;;;;;6191080;23;20448;-76
2023/12/23 03:39:35;;;;;;;11.18;1.70;;;6.00;99.90;;;;;;6191210;23;20016;-76
2023/12/23 03:42:01;;;;;;;11.35;1.65;;;6.00;99.90;;;;;;6191083;23;20025;-76
2023/12/23 03:44:26;;;;;;;18.90;2.10;;;6.00;99.90;;;;;;6191112;23;20357;-76
2023/12/23 03:46:52;;;;;;;10.52;1.63;;;6.00;99.90;;;;;;6191456;23;20023;-76
2023/12/23 03:49:18;;;;;;;13.23;2.38;;;5.90;99.90;;;;;;6217561;23;20029;-76
2023/12/23 03:51:43;;;;;;;10.43;1.30;;;6.00;99.90;;;;;;6190999;23;20009;-76
2023/12/23 03:54:09;;;;;;;8.57;1.13;;;6.00;99.90;;;;;;6191011;23;20028;-76
2023/12/23 03:56:37;;;;;;;7.68;1.05;;;6.00;99.90;;;;;;6217214;23;20044;-77
2023/12/23 03:59:04;;;;;;;4.45;1.02;;;6.00;99.90;;;;;;6191065;23;20028;-76
2023/12/23 04:01:33;;;;;;;5.57;1.02;;;6.00;99.90;;;;;;6190824;23;20044;-76
2023/12/23 04:04:16;;;;;;;6.88;1.30;;;5.90;99.90;;;;;;6217268;23;20106;-76
2023/12/23 04:06:44;;;;;;;5.50;0.93;;;5.90;99.90;;;;;;6192356;23;20021;-76
2023/12/23 04:09:10;;;;;;;4.30;0.80;;;5.80;99.90;;;;;;6190989;23;20025;-76
2023/12/23 04:11:36;;;;;;;9.60;0.77;;;5.90;99.90;;;;;;6190912;23;20023;-76
2023/12/23 04:14:01;;;;;;;14.48;1.35;;;5.90;99.90;;;;;;6190876;23;20531;-76
2023/12/23 04:16:28;;;;;;;10.55;1.00;;;5.90;99.90;;;;;;6190773;23;20051;-76
2023/12/23 04:18:53;;;;;;;7.93;1.20;;;5.90;99.90;;;;;;6217707;23;20429;-76
2023/12/23 04:21:19;;;;;;;6.07;0.30;;;5.80;99.90;;;;;;6190822;23;20352;-76
2023/12/23 04:23:45;;;;;;;3.90;0.70;;;5.90;99.90;;;;;;6190604;23;20016;-76
2023/12/23 04:26:14;;;;;;;6.20;0.60;;;5.90;99.90;;;;;;6191240;23;20009;-76
2023/12/23 04:28:42;;;;;;;2.85;0.35;;;5.80;99.90;;;;;;6190641;23;20021;-76
2023/12/23 04:31:07;;;;;;;2.53;1.00;;;5.80;99.90;;;;;;6190675;23;20028;-76
2023/12/23 04:33:34;;;;;;;3.15;0.85;;;5.70;99.90;;;;;;6190645;23;20341;-76
2023/12/23 04:36:00;;;;;;;9.27;1.00;;;5.70;99.90;;;;;;6190562;23;20348;-76
2023/12/23 04:38:26;;;;;;;8.60;0.70;;;5.70;99.90;;;;;;6191681;23;20016;-76
2023/12/23 04:40:54;;;;;;;5.30;0.47;;;5.70;99.90;;;;;;6217507;23;20016;-76
2023/12/23 04:43:20;;;;;;;8.98;0.90;;;5.80;99.90;;;;;;6190460;23;20028;-76
2023/12/23 04:45:46;;;;;;;3.70;0.50;;;5.80;99.90;;;;;;6217102;23;20341;-76
2023/12/23 04:48:12;;;;;;;2.67;0.30;;;5.80;99.90;;;;;;6190970;23;20055;-76
2023/12/23 04:50:38;;;;;;;3.80;0.20;;;5.90;99.90;;;;;;6190513;23;20021;-76
2023/12/23 04:53:07;;;;;;;8.02;1.75;;;5.90;99.90;;;;;;6190510;23;20020;-76
2023/12/23 04:55:32;;;;;;;4.25;0.40;;;5.90;99.90;;;;;;6190486;23;20023;-76
2023/12/23 04:58:00;;;;;;;4.20;0.30;;;5.90;99.90;;;;;;6190151;23;20017;-76
2023/12/23 05:00:25;;;;;;;4.00;0.45;;;5.80;99.90;;;;;;6190416;23;20052;-76
2023/12/23 05:02:51;;;;;;;2.08;0.20;;;5.80;99.90;;;;;;6217207;23;20016;-76
2023/12/23 05:05:17;;;;;;;4.75;0.38;;;5.70;99.90;;;;;;6190350;23;20031;-76
2023/12/23 05:07:42;;;;;;;1.38;0.35;;;5.70;99.90;;;;;;6190479;23;20340;-76
2023/12/23 05:10:11;;;;;;;1.77;0.20;;;5.60;99.90;;;;;;6190349;23;20349;-76
2023/12/23 05:12:37;;;;;;;5.38;0.63;;;5.70;99.90;;;;;;6217196;23;20023;-76
2023/12/23 05:15:02;;;;;;;4.82;0.47;;;5.60;99.90;;;;;;6190305;23;20345;-76
2023/12/23 05:17:28;;;;;;;3.70;0.60;;;5.60;99.90;;;;;;6190202;23;20025;-76
2023/12/23 05:19:56;;;;;;;2.60;0.75;;;5.70;99.90;;;;;;6190294;23;20096;-76
2023/12/23 05:22:22;;;;;;;6.95;0.75;;;5.60;99.90;;;;;;6190140;23;20490;-76
2023/12/23 05:24:48;;;;;;;3.75;0.63;;;5.60;99.90;;;;;;6190055;23;20095;-76
2023/12/23 05:27:14;;;;;;;5.40;0.50;;;5.50;99.90;;;;;;6190253;23;20467;-76
2023/12/23 05:29:40;;;;;;;2.78;0.50;;;5.50;99.90;;;;;;6190095;23;20016;-76
2023/12/23 05:32:05;;;;;;;4.47;0.60;;;5.50;99.90;;;;;;6190134;23;20013;-76
2023/12/23 05:34:34;;;;;;;4.88;0.88;;;5.50;99.90;;;;;;6190026;23;20448;-76
2023/12/23 05:36:59;;;;;;;6.40;1.25;;;5.50;99.90;;;;;;6190157;23;20034;-76
2023/12/23 05:39:25;;;;;;;4.03;1.70;;;5.50;99.90;;;;;;6190078;23;20385;-76
2023/12/23 05:41:51;;;;;;;6.97;0.90;;;5.50;99.90;;;;;;6189910;23;20527;-76
2023/12/23 05:44:16;;;;;;;4.40;0.82;;;5.50;99.90;;;;;;6189933;23;20027;-76
2023/12/23 05:46:42;;;;;;;7.25;1.88;;;5.50;99.90;;;;;;6189933;23;20024;-76
2023/12/23 05:49:07;;;;;;;6.50;1.60;;;5.50;99.90;;;;;;6189979;23;20028;-76
2023/12/23 05:51:34;;;;;;;6.97;0.88;;;5.50;99.90;;;;;;6189210;23;20437;-76
2023/12/23 05:54:00;;;;;;;8.85;1.05;;;5.40;99.90;;;;;;6189825;23;20025;-76
2023/12/23 05:56:25;;;;;;;6.75;0.90;;;5.40;99.90;;;;;;6189389;23;20012;-76
2023/12/23 05:58:51;;;;;;;4.63;0.70;;;5.40;99.90;;;;;;6189956;23;20028;-76
2023/12/23 06:01:17;;;;;;;4.78;0.50;;;5.40;99.90;;;;;;6189900;23;20350;-76
2023/12/23 06:03:43;;;;;;;5.20;0.82;;;5.40;99.90;;;;;;6189786;23;20024;-76
2023/12/23 06:06:09;;;;;;;7.57;0.60;;;5.40;99.90;;;;;;6190405;23;20017;-76
2023/12/23 06:08:34;;;;;;;7.97;1.70;;;5.50;99.90;;;;;;6189812;23;20023;-76
2023/12/23 06:11:00;;;;;;;1.40;0.40;;;5.50;99.90;;;;;;6189784;23;20008;-76
2023/12/23 06:13:29;;;;;;;4.03;0.45;;;5.50;99.90;;;;;;6189715;23;20016;-76
2023/12/23 06:15:54;;;;;;;4.43;0.45;;;5.50;99.90;;;;;;6189703;23;20322;-76
2023/12/23 06:18:21;;;;;;;3.08;0.43;;;5.60;99.90;;;;;;6216319;23;20501;-76
2023/12/23 06:20:46;;;;;;;2.95;0.47;;;5.50;99.90;;;;;;6189679;23;20445;-76
2023/12/23 06:23:12;;;;;;;2.60;0.30;;;5.50;99.90;;;;;;6189477;23;20024;-76
2023/12/23 06:25:38;;;;;;;1.15;0.47;;;5.50;99.90;;;;;;6189687;23;20016;-76
2023/12/23 06:28:04;;;;;;;3.88;0.82;;;5.50;99.90;;;;;;6189610;23;20031;-76
2023/12/23 06:30:29;;;;;;;6.20;0.90;;;5.50;99.90;;;;;;6216300;23;20009;-76
2023/12/23 06:32:55;;;;;;;10.38;0.77;;;5.50;99.90;;;;;;6189591;23;20105;-76
2023/12/23 06:35:20;;;;;;;4.07;0.50;;;5.50;99.90;;;;;;6189488;23;20332;-76
2023/12/23 06:37:46;;;;;;;7.95;1.60;;;5.50;99.90;;;;;;6189244;23;20017;-76
2023/12/23 06:40:12;;;;;;;7.30;0.50;;;5.40;99.90;;;;;;6189588;23;20027;-76
2023/12/23 06:42:40;;;;;;;4.00;0.80;;;5.40;99.90;;;;;;6189365;23;20012;-76
2023/12/23 06:45:06;;;;;;;3.40;0.40;;;5.50;99.90;;;;;;6189549;23;20079;-76
2023/12/23 06:47:34;;;;;;;1.08;0.22;;;5.50;99.90;;;;;;6189468;23;20023;-76
2023/12/23 06:50:00;;;;;;;2.20;0.30;;;5.60;99.90;;;;;;6189483;23;20035;-76
2023/12/23 06:52:26;;;;;;;3.92;0.17;;;5.60;99.90;;;;;;6216019;23;20012;-76
2023/12/23 06:54:52;;;;;;;2.72;0.20;;;5.60;99.90;;;;;;6189447;23;20013;-76
2023/12/23 06:57:17;;;;;;;3.05;0.20;;;5.60;99.90;;;;;;6189296;23;20035;-76
2023/12/23 06:59:48;;;;;;;2.03;0.50;;;5.60;99.90;;;;;;6189443;23;20349;-76
2023/12/23 07:02:14;;;;;;;2.55;0.47;;;5.60;99.90;;;;;;6189269;23;20031;-76
2023/12/23 07:04:39;;;;;;;1.73;0.85;;;5.50;99.90;;;;;;6189209;23;20016;-76
2023/12/23 07:07:06;;;;;;;2.95;1.10;;;5.50;99.90;;;;;;6189347;23;20070;-76
2023/12/23 07:09:32;;;;;;;1.85;0.30;;;5.50;99.90;;;;;;6217887;23;20016;-76
2023/12/23 07:11:58;;;;;;;3.25;0.50;;;5.40;99.90;;;;;;6191452;23;20023;-76
2023/12/23 07:14:24;;;;;;;2.17;0.20;;;5.40;99.90;;;;;;6218376;23;20023;-76
2023/12/23 07:16:49;;;;;;;6.93;0.30;;;5.30;99.90;;;;;;6191322;23;20416;-76
2023/12/23 07:19:16;;;;;;;2.67;0.22;;;5.40;99.90;;;;;;6191176;23;20015;-75
2023/12/23 07:21:42;;;;;;;4.15;0.20;;;5.30;99.90;;;;;;6191440;23;20027;-76
2023/12/23 07:24:07;;;;;;;1.02;0.10;;;5.40;99.90;;;;;;6191240;23;20016;-76
2023/12/23 07:26:35;;;;;;;1.80;0.20;;;5.50;99.90;;;;;;6191235;23;20020;-76
2023/12/23 07:29:02;;;;;;;3.08;0.17;;;5.40;99.90;;;;;;6191263;23;20021;-76
2023/12/23 07:31:32;;;;;;;1.30;0.57;;;5.40;99.90;;;;;;6191412;23;20013;-76
2023/12/23 07:33:58;;;;;;;1.00;0.20;;;5.50;99.90;;;;;;6191299;23;20024;-76
2023/12/23 07:36:24;;;;;;;1.40;0.20;;;5.50;99.90;;;;;;6191250;23;20063;-76
2023/12/23 07:38:49;;;;;;;1.08;0.10;;;5.50;99.90;;;;;;6191115;23;20020;-76
2023/12/23 07:41:15;;;;;;;7.45;0.50;;;5.50;99.90;;;;;;6191289;23;20016;-76
2023/12/23 07:43:41;;;;;;;3.15;0.35;;;5.50;99.90;;;;;;6189996;23;20024;-76
2023/12/23 07:46:07;;;;;;;1.90;0.25;;;5.50;99.90;;;;;;6190852;23;20092;-76
2023/12/23 07:48:35;;;;;;;4.10;0.60;;;5.40;99.90;;;;;;6217751;23;20020;-76
2023/12/23 07:51:08;;;;;;;3.20;0.40;;;5.40;99.90;;;;;;6190824;23;20009;-78
2023/12/23 07:53:33;;;;;;;;;;;5.50;99.90;;;;;;6191141;23;20511;-75
2023/12/23 07:56:06;;;;;;;1.70;0.25;;;5.50;99.90;;;;;;6190135;23;19922;-76
2023/12/23 07:58:32;;;;;;;4.30;0.40;;;5.50;99.90;;;;;;6190755;23;20025;-76
2023/12/23 08:00:59;;;;;;;5.00;0.30;;;5.40;99.90;;;;;;6190802;23;20437;-76
2023/12/23 08:03:25;;;;;;;2.45;0.45;;;5.40;99.90;;;;;;6190032;23;20456;-76
2023/12/23 08:05:51;;;;;;;1.55;0.30;;;5.40;99.90;;;;;;6189505;23;20055;-76
2023/12/23 08:08:16;;;;;;;4.72;0.47;;;5.50;99.90;;;;;;6190308;23;20026;-76
2023/12/23 08:10:42;;;;;;;4.03;1.30;;;5.50;99.90;;;;;;6190676;23;20013;-76
2023/12/23 08:13:09;;;;;;;0.55;0.10;;;5.40;99.90;;;;;;6190582;23;20017;-76
2023/12/23 08:15:34;;;;;;;0.57;0.15;;;5.50;99.90;;;;;;6217470;23;20023;-76
2023/12/23 08:18:01;;;;;;;1.25;0.15;;;5.60;99.90;;;;;;6190616;23;20020;-76
2023/12/23 08:20:26;;;;;;;1.33;0.30;;;5.60;99.90;;;;;;6190228;23;20023;-79
2023/12/23 08:22:52;;;;;;;3.38;0.30;;;5.60;99.90;;;;;;6190354;23;20024;-76
2023/12/23 08:25:18;;;;;;;1.58;0.10;;;5.50;99.90;;;;;;6217490;23;20087;-76
2023/12/23 08:27:44;;;;;;;0.90;0.10;;;5.50;99.90;;;;;;6190411;23;20029;-76
2023/12/23 08:30:10;;;;;;;3.70;0.28;;;5.50;99.90;;;;;;6217223;23;20429;-76
2023/12/23 08:32:35;;;;;;;3.97;0.22;;;5.40;99.90;;;;;;6190333;23;20031;-78
2023/12/23 08:35:01;;;;;;;1.70;0.55;;;5.40;99.90;;;;;;6190214;23;20013;-76
2023/12/23 08:37:27;;;;;;;0.43;0.10;;;5.50;99.90;;;;;;6190277;23;20326;-76
2023/12/23 08:39:53;;;;;;;3.08;0.30;;;5.50;99.90;;;;;;6190389;23;20437;-78
2023/12/23 08:42:22;;;;;;;1.27;0.13;;;5.50;99.90;;;;;;6190542;23;20020;-77
2023/12/23 08:44:48;;;;;;;2.38;0.20;;;5.50;99.90;;;;;;6190246;23;20075;-77
2023/12/23 08:47:14;;;;;;;1.77;0.05;;;5.50;99.90;;;;;;6190260;23;20017;-77
2023/12/23 08:49:39;;;;;;;0.25;0.15;;;5.50;99.90;;;;;;6190250;23;20021;-77
2023/12/23 08:52:06;;;;;;;1.65;0.47;;;5.50;99.90;;;;;;6189854;23;20020;-76
2023/12/23 08:54:32;;;;;;;0.85;0.35;;;5.50;99.90;;;;;;6190319;23;20023;-77
2023/12/23 08:57:00;;;;;;;2.63;0.50;;;5.50;99.90;;;;;;6189914;23;20092;-77
2023/12/23 08:59:25;;;;;;;3.83;0.32;;;5.50;99.90;;;;;;6189842;23;20100;-77
2023/12/23 09:01:54;;;;;;;2.08;0.50;;;5.50;99.90;;;;;;6189981;23;20047;-77
2023/12/23 09:04:19;;;;;;;1.15;0.20;;;5.40;99.90;;;;;;6189572;23;20357;-77
2023/12/23 09:06:46;;;;;;;2.58;2.38;;;5.50;99.90;;;;;;6189516;23;20491;-77
2023/12/23 09:09:11;;;;;;;1.50;0.10;;;5.50;99.90;;;;;;6189903;23;20032;-77
2023/12/23 09:11:44;;;;;;;0.10;0.03;;;5.40;99.90;;;;;;6190036;23;20021;-77
2023/12/23 09:14:10;;;;;;;3.23;0.20;;;5.40;99.90;;;;;;6189996;23;20020;-77
2023/12/23 09:16:36;;;;;;;1.85;0.30;;;5.40;99.90;;;;;;6189971;23;20392;-77
2023/12/23 09:19:01;;;;;;;0.93;0.28;;;5.50;99.90;;;;;;6189872;23;20016;-77
2023/12/23 09:21:27;;;;;;;1.15;0.20;;;5.50;99.90;;;;;;6216815;23;20055;-77
2023/12/23 09:23:52;;;;;;;1.85;0.13;;;5.50;99.90;;;;;;6189821;23;20020;-76
2023/12/23 09:26:18;;;;;;;0.73;0.10;;;5.50;99.90;;;;;;6190012;23;20017;-77
2023/12/23 09:28:44;;;;;;;1.70;0.35;;;5.50;99.90;;;;;;6189777;23;20433;-77
2023/12/23 09:31:09;;;;;;;2.78;0.20;;;5.50;99.90;;;;;;6189397;23;20043;-77
2023/12/23 09:33:38;;;;;;;3.90;0.45;;;5.50;99.90;;;;;;6189650;23;20027;-77
2023/12/23 09:36:05;;;;;;;1.83;0.40;;;5.50;99.90;;;;;;6189691;23;20009;-77
2023/12/23 09:38:30;;;;;;;1.13;0.30;;;5.50;99.90;;;;;;6189800;23;20027;-77
2023/12/23 09:40:57;;;;;;;1.55;0.13;;;5.50;99.90;;;;;;6189847;23;20012;-77
2023/12/23 09:43:23;;;;;;;1.55;0.13;;;5.50;99.90;;;;;;6189607;23;20052;-77
2023/12/23 09:45:51;;;;;;;1.00;0.13;;;5.50;99.90;;;;;;6189741;23;20023;-77
2023/12/23 09:48:17;;;;;;;1.35;0.20;;;5.50;99.90;;;;;;6189710;23;20012;-77
2023/12/23 09:50:42;;;;;;;1.15;0.28;;;5.50;99.90;;;;;;6189728;23;20099;-77
2023/12/23 09:53:13;;;;;;;0.80;0.10;;;5.50;99.90;;;;;;6189637;23;20448;-77
2023/12/23 09:55:40;;;;;;;1.83;0.10;;;5.50;99.90;;;;;;6189273;23;20376;-77
2023/12/23 09:58:06;;;;;;;0.95;0.10;;;5.50;99.90;;;;;;6189342;23;20463;-77
2023/12/23 10:00:32;;;;;;;1.95;0.20;;;5.50;99.90;;;;;;6189593;23;20020;-77
2023/12/23 10:02:59;;;;;;;0.70;0.10;;;5.50;99.90;;;;;;6189399;23;20023;-77
2023/12/23 10:05:29;;;;;;;2.40;0.20;;;5.60;99.90;;;;;;6189506;23;20091;-77
2023/12/23 10:07:59;;;;;;;0.60;0.10;;;5.50;99.90;;;;;;6189383;23;20048;-77
2023/12/23 10:10:32;;;;;;;0.55;0.10;;;5.60;99.90;;;;;;6189499;23;20054;-76
2023/12/23 10:12:57;;;;;;;3.08;0.60;;;5.60;99.90;;;;;;6189929;23;20016;-77
2023/12/23 10:15:23;;;;;;;1.15;0.10;;;5.60;99.90;;;;;;6216269;23;20511;-77
2023/12/23 10:17:49;;;;;;;1.13;0.10;;;5.60;99.90;;;;;;6189547;23;20023;-77
2023/12/23 10:20:14;;;;;;;1.30;0.10;;;5.60;99.90;;;;;;6189416;23;20023;-77
2023/12/23 10:22:46;;;;;;;1.75;0.20;;;5.60;99.90;;;;;;6189189;23;20047;-77
2023/12/23 10:25:13;;;;;;;1.20;0.10;;;5.60;99.90;;;;;;6216108;23;20016;-77
2023/12/23 10:27:43;;;;;;;0.88;0.10;;;5.70;99.90;;;;;;6189405;23;20013;-77
2023/12/23 10:30:10;;;;;;;1.17;0.10;;;5.70;99.90;;;;;;6215772;23;20452;-76
2023/12/23 10:32:37;;;;;;;2.05;0.10;;;5.70;99.90;;;;;;6189387;23;20318;-76
2023/12/23 10:35:05;;;;;;;0.45;0.08;;;5.70;99.90;;;;;;6189237;23;20456;-76
2023/12/23 10:37:33;;;;;;;0.52;0.10;;;5.80;99.90;;;;;;6189176;23;20016;-76
2023/12/23 10:40:23;;;;;;;0.88;0.10;;;5.80;99.90;;;;;;6189393;23;20020;-78
2023/12/23 10:42:50;;;;;;;0.22;0.05;;;5.70;99.90;;;;;;6189034;23;20009;-76
2023/12/23 10:45:16;;;;;;;3.17;0.10;;;5.70;99.90;;;;;;6189047;23;20111;-77
2023/12/23 10:47:43;;;;;;;0.43;0.10;;;5.70;99.90;;;;;;6189340;23;20012;-77
2023/12/23 10:50:10;;;;;;;0.60;0.00;;;5.70;99.90;;;;;;6189231;23;20031;-77
2023/12/23 10:52:36;;;;;;;0.70;0.28;;;5.70;99.90;;;;;;6189044;23;20028;-77
2023/12/23 10:55:03;;;;;;;2.63;1.50;;;5.80;99.90;;;;;;6189182;23;20024;-77
2023/12/23 10:57:31;;;;;;;0.60;0.20;;;5.70;99.90;;;;;;6189017;23;20021;-76
2023/12/23 10:59:57;;;;;;;0.03;0.00;;;5.80;99.90;;;;;;6215981;23;20048;-77
2023/12/23 11:02:29;;;;;;;0.00;0.00;;;5.80;99.90;;;;;;6189081;23;20083;-77
2023/12/23 11:04:56;;;;;;;0.32;0.10;;;5.80;99.90;;;;;;6189112;23;20024;-77
2023/12/23 11:07:29;;;;;;;1.40;0.10;;;5.80;99.90;;;;;;6188872;23;20012;-76
2023/12/23 11:10:00;;;;;;;0.93;0.00;;;5.80;99.90;;;;;;6189254;23;20100;-77
2023/12/23 11:12:26;;;;;;;0.40;0.10;;;5.90;99.90;;;;;;6189110;23;20088;-76
2023/12/23 11:14:51;;;;;;;0.32;0.13;;;5.90;99.90;;;;;;6189084;23;20047;-76
2023/12/23 11:17:41;;;;;;;0.52;0.10;;;5.90;99.90;;;;;;6215965;23;20024;-77
2023/12/23 11:20:07;;;;;;;0.95;0.15;;;5.90;99.90;;;;;;6188984;23;20027;-77
2023/12/23 11:22:38;;;;;;;1.73;0.75;;;5.90;99.90;;;;;;6188747;23;20017;-76
2023/12/23 11:25:04;;;;;;;1.27;0.60;;;6.00;99.90;;;;;;6189010;23;20422;-76
2023/12/23 11:27:31;;;;;;;0.40;0.20;;;6.00;99.90;;;;;;6188950;23;20508;-77
2023/12/23 11:30:06;;;;;;;2.00;0.50;;;6.00;99.90;;;;;;6189006;23;20021;-76
2023/12/23 11:32:41;;;;;;;1.10;0.22;;;6.00;99.90;;;;;;6215524;23;20095;-76
2023/12/23 11:35:11;;;;;;;0.63;0.20;;;6.00;99.90;;;;;;6189022;23;20059;-76
2023/12/23 11:37:53;;;;;;;1.38;0.20;;;6.00;99.90;;;;;;6189163;23;20377;-78
2023/12/23 11:40:20;;;;;;;0.25;0.20;;;6.00;99.90;;;;;;6188950;23;20048;-77
2023/12/23 11:42:47;;;;;;;0.68;0.30;;;6.00;99.90;;;;;;6187074;23;20009;-77
2023/12/23 11:45:13;;;;;;;1.48;0.50;;;6.00;99.90;;;;;;6188818;23;20078;-77
2023/12/23 11:47:40;;;;;;;1.58;0.43;;;6.10;99.90;;;;;;6188888;23;20017;-76
2023/12/23 11:50:07;;;;;;;0.68;0.20;;;6.10;99.90;;;;;;6189176;23;20044;-78
2023/12/23 11:52:36;;;;;;;1.35;0.40;;;6.10;99.90;;;;;;6188733;23;20067;-78
2023/12/23 11:55:03;;;;;;;1.27;0.70;;;6.10;99.90;;;;;;6189989;23;20445;-78
2023/12/23 11:57:33;;;;;;;0.82;0.35;;;6.10;99.90;;;;;;6190418;23;20025;-78
2023/12/23 11:59:59;;;;;;;1.08;0.40;;;6.10;99.90;;;;;;6217287;23;20025;-79
2023/12/23 12:02:25;;;;;;;1.67;0.20;;;6.20;99.90;;;;;;6190652;23;20063;-79
2023/12/23 12:04:51;;;;;;;0.20;0.10;;;6.20;99.90;;;;;;6190540;23;20020;-78
2023/12/23 12:07:19;;;;;;;0.35;0.10;;;6.20;99.90;;;;;;6190704;23;20016;-78
2023/12/23 12:09:48;;;;;;;0.10;0.00;;;6.20;99.90;;;;;;6190665;23;20032;-78
2023/12/23 12:12:13;;;;;;;0.10;0.10;;;6.30;99.90;;;;;;6190584;23;20035;-78
2023/12/23 12:14:40;;;;;;;0.20;0.10;;;6.30;99.90;;;;;;6190337;23;20024;-80
2023/12/23 12:17:07;;;;;;;1.00;0.08;;;6.30;99.90;;;;;;6188997;23;20039;-79
2023/12/23 12:19:33;;;;;;;0.90;0.20;;;6.30;99.90;;;;;;6217366;23;20024;-78
2023/12/23 12:21:59;;;;;;;0.30;0.10;;;6.30;99.90;;;;;;6217491;23;20016;-77
2023/12/23 12:24:25;;;;;;;0.20;0.10;;;6.30;99.90;;;;;;6188767;23;20016;-77
2023/12/23 12:26:53;;;;;;;0.57;0.10;;;6.30;99.90;;;;;;6189030;23;20062;-78
2023/12/23 12:29:22;;;;;;;0.73;0.30;;;6.30;99.90;;;;;;6190325;23;20016;-79
2023/12/23 12:31:58;;;;;;;1.23;0.30;;;6.40;99.90;;;;;;6189311;23;20124;-79
2023/12/23 12:34:25;;;;;;;0.52;0.30;;;6.30;99.90;;;;;;6190337;23;20082;-76
2023/12/23 12:36:51;;;;;;;0.50;0.20;;;6.40;99.90;;;;;;6190290;23;20020;-80
2023/12/23 12:39:21;;;;;;;0.90;0.30;;;6.40;99.90;;;;;;6190857;23;20036;-83
2023/12/23 12:41:51;;;;;;;0.35;0.20;;;6.40;99.90;;;;;;6217233;23;20058;-78
2023/12/23 12:44:19;;;;;;;0.47;0.30;;;6.40;99.90;;;;;;6186493;23;20027;-78
2023/12/23 12:46:53;;;;;;;0.73;0.25;;;6.40;99.90;;;;;;6189366;23;20017;-77
2023/12/23 12:49:19;;;;;;;0.50;0.30;;;6.40;99.90;;;;;;6189494;23;20017;-78
2023/12/23 12:51:44;;;;;;;0.70;0.43;;;6.40;99.90;;;;;;6190179;23;20104;-78
2023/12/23 12:54:10;;;;;;;0.60;0.30;;;6.40;99.90;;;;;;6190102;23;20044;-77